createdAt,value
2016-08-14T00:02:15.626Z,"    0"
2016-08-14T00:07:13.289Z,"    0"
2016-08-14T00:12:11.269Z,"    0"
2016-08-14T00:17:08.953Z,"    0"
2016-08-14T00:22:06.703Z,"    0"
2016-08-14T00:27:04.509Z,"    0"
2016-08-14T00:32:02.224Z,"    0"
2016-08-14T00:37:00.009Z,"    0"
2016-08-14T00:41:58.033Z,"    0"
2016-08-14T00:46:55.720Z,"    0"
2016-08-14T00:51:53.594Z,"    0"
2016-08-14T00:56:51.400Z,"    0"
2016-08-14T01:01:49.263Z,"    0"
2016-08-14T01:06:46.969Z,"    0"
2016-08-14T01:11:44.903Z,"    0"
2016-08-14T01:16:42.657Z,"    0"
2016-08-14T01:21:40.440Z,"    0"
2016-08-14T01:26:38.493Z,"    0"
2016-08-14T01:31:36.256Z,"    0"
2016-08-14T01:36:33.957Z,"    0"
2016-08-14T01:41:31.812Z,"    0"
2016-08-14T01:46:29.438Z,"    0"
2016-08-14T01:51:27.215Z,"    0"
2016-08-14T01:56:25.147Z,"    0"
2016-08-14T02:01:22.829Z,"    0"
2016-08-14T02:06:20.529Z,"    0"
2016-08-14T02:11:18.526Z,"    0"
2016-08-14T02:16:16.303Z,"    0"
2016-08-14T02:21:14.066Z,"    0"
2016-08-14T02:26:11.692Z,"    0"
2016-08-14T02:31:09.537Z,"    0"
2016-08-14T02:36:07.284Z,"    0"
2016-08-14T02:41:05.142Z,"    0"
2016-08-14T02:46:03.047Z,"    0"
2016-08-14T02:51:00.805Z,"    0"
2016-08-14T02:55:58.974Z,"    0"
2016-08-14T03:00:56.547Z,"    0"
2016-08-14T03:05:54.503Z,"    0"
2016-08-14T03:10:52.337Z,"    0"
2016-08-14T03:15:50.185Z,"    0"
2016-08-14T03:20:47.906Z,"    0"
2016-08-14T03:25:45.642Z,"    0"
2016-08-14T03:30:43.460Z,"    0"
2016-08-14T03:35:41.352Z,"    0"
2016-08-14T03:40:38.945Z,"    0"
2016-08-14T03:45:36.860Z,"    0"
2016-08-14T03:50:34.620Z,"    0"
2016-08-14T03:55:32.473Z,"    0"
2016-08-14T04:00:30.269Z,"    0"
2016-08-14T04:05:28.058Z,"    0"
2016-08-14T04:10:25.817Z,"    0"
2016-08-14T04:15:23.740Z,"    0"
2016-08-14T04:20:21.481Z,"    0"
2016-08-14T04:25:19.246Z,"    0"
2016-08-14T04:30:16.938Z,"    4"
2016-08-14T04:35:14.617Z,"    4"
2016-08-14T04:40:12.553Z,"    4"
2016-08-14T04:45:10.284Z,"    0"
2016-08-14T04:50:08.090Z,"    4"
2016-08-14T04:55:05.974Z,"    8"
2016-08-14T05:00:03.813Z,"    8"
2016-08-14T05:05:01.682Z,"   12"
2016-08-14T05:09:59.419Z,"    8"
2016-08-14T05:14:57.314Z,"    8"
2016-08-14T05:19:55.122Z,"   16"
2016-08-14T05:24:52.803Z,"   24"
2016-08-14T05:29:50.613Z,"   16"
2016-08-14T05:34:48.515Z,"   24"
2016-08-14T05:39:46.224Z,"   24"
2016-08-14T05:44:44.277Z,"   20"
2016-08-14T05:49:42.047Z,"   36"
2016-08-14T05:54:39.741Z,"   20"
2016-08-14T05:59:37.688Z,"   24"
2016-08-14T06:04:35.359Z,"   36"
2016-08-14T06:09:33.147Z,"   40"
2016-08-14T06:14:30.937Z,"   68"
2016-08-14T06:19:28.834Z,"   76"
2016-08-14T06:24:26.648Z,"   44"
2016-08-14T06:29:24.498Z,"   36"
2016-08-14T06:34:22.317Z,"   52"
2016-08-14T06:39:20.149Z,"   56"
2016-08-14T06:44:18.030Z,"   68"
2016-08-14T06:49:15.930Z,"   44"
2016-08-14T06:54:13.675Z,"   60"
2016-08-14T06:59:11.579Z,"   88"
2016-08-14T07:04:09.461Z,"  104"
2016-08-14T07:09:07.377Z,"  116"
2016-08-14T07:14:05.213Z,"  104"
2016-08-14T07:19:02.957Z,"  128"
2016-08-14T07:24:00.989Z,"  116"
2016-08-14T07:28:58.843Z,"  120"
2016-08-14T07:33:56.690Z,"  156"
2016-08-14T07:38:54.507Z,"  148"
2016-08-14T07:43:52.356Z,"  168"
2016-08-14T07:48:50.211Z,"  184"
2016-08-14T07:53:48.092Z,"  160"
2016-08-14T07:58:45.955Z,"  192"
2016-08-14T08:03:44.116Z,"  232"
2016-08-14T08:08:41.976Z,"  304"
2016-08-14T08:13:40.068Z,"  376"
2016-08-14T08:18:37.996Z,"  216"
2016-08-14T08:23:35.808Z,"  280"
2016-08-14T08:28:33.584Z,"  400"
2016-08-14T08:33:31.644Z,"  148"
2016-08-14T08:38:29.607Z,"  524"
2016-08-14T08:43:27.453Z,"  216"
2016-08-14T08:48:25.439Z,"  428"
2016-08-14T08:53:23.246Z,"  548"
2016-08-14T08:58:21.148Z,"  568"
2016-08-14T09:03:18.963Z,"  592"
2016-08-14T09:08:16.835Z,"  156"
2016-08-14T09:13:14.311Z,"  568"
2016-08-14T09:18:12.249Z,"  708"
2016-08-14T09:23:09.940Z,"  100"
2016-08-14T09:28:07.926Z,"  392"
2016-08-14T09:33:05.709Z,"  148"
2016-08-14T09:38:03.371Z,"  152"
2016-08-14T09:43:01.114Z,"  160"
2016-08-14T09:47:58.801Z,"  160"
2016-08-14T09:52:56.702Z,"  180"
2016-08-14T09:57:54.346Z,"  156"
2016-08-14T10:02:52.227Z,"  172"
2016-08-14T10:07:49.872Z,"  164"
2016-08-14T10:12:47.557Z,"   88"
2016-08-14T10:17:45.364Z,"  100"
2016-08-14T10:22:43.279Z,"  116"
2016-08-14T10:27:41.093Z,"  132"
2016-08-14T10:32:38.736Z,"  160"
2016-08-14T10:37:36.402Z,"  204"
2016-08-14T10:42:34.113Z,"  112"
2016-08-14T10:47:31.767Z,"  116"
2016-08-14T10:52:29.548Z,"  124"
2016-08-14T10:57:27.300Z,"  128"
2016-08-14T11:02:24.972Z,"  124"
2016-08-14T11:07:22.651Z,"  120"
2016-08-14T11:12:20.296Z,"  100"
2016-08-14T11:17:17.997Z,"   80"
2016-08-14T11:22:15.576Z,"   96"
2016-08-14T11:27:13.400Z,"   88"
2016-08-14T11:32:11.199Z,"  104"
2016-08-14T11:37:08.878Z,"  100"
2016-08-14T11:42:06.586Z,"   92"
2016-08-14T11:47:03.997Z,"  104"
2016-08-14T11:52:01.537Z,"  132"
2016-08-14T11:56:59.364Z,"  144"
2016-08-14T12:01:57.092Z,"  152"
2016-08-14T12:06:54.789Z,"  152"
2016-08-14T12:11:52.587Z,"  152"
2016-08-14T12:16:50.401Z,"  140"
2016-08-14T12:21:48.115Z,"  140"
2016-08-14T12:26:45.944Z,"  136"
2016-08-14T12:31:43.666Z,"  128"
2016-08-14T12:36:41.396Z,"  124"
2016-08-14T12:41:38.998Z,"  136"
2016-08-14T12:46:36.936Z,"  132"
2016-08-14T12:51:34.676Z,"  120"
2016-08-14T12:56:32.416Z,"  116"
2016-08-14T13:01:30.218Z,"  112"
2016-08-14T13:06:27.904Z,"   76"
2016-08-14T13:11:25.599Z,"   80"
2016-08-14T13:16:23.151Z,"   76"
2016-08-14T13:40:05.371Z,"   76"
2016-08-14T13:45:02.601Z,"   92"
2016-08-14T13:50:00.135Z,"   88"
2016-08-14T13:54:57.787Z,"   80"
2016-08-14T13:59:55.528Z,"   56"
2016-08-14T14:04:53.265Z,"   40"
2016-08-14T14:09:51.263Z,"   56"
2016-08-14T14:14:48.829Z,"   60"
2016-08-14T14:19:46.748Z,"   40"
2016-08-14T14:24:44.387Z,"   48"
2016-08-14T14:29:42.080Z,"   44"
2016-08-14T14:34:39.710Z,"   44"
2016-08-14T14:39:37.566Z,"   56"
2016-08-14T14:44:35.388Z,"   44"
2016-08-14T14:49:33.232Z,"   28"
2016-08-14T14:54:30.855Z,"   24"
2016-08-14T14:59:28.562Z,"   44"
2016-08-14T15:04:26.319Z,"   44"
2016-08-14T15:09:23.967Z,"   36"
2016-08-14T15:14:21.584Z,"   40"
2016-08-14T15:19:19.734Z,"   36"
2016-08-14T15:24:17.100Z,"   40"
2016-08-14T15:29:14.818Z,"   44"
2016-08-14T15:34:12.552Z,"   40"
2016-08-14T15:39:10.153Z,"   40"
2016-08-14T15:44:08.122Z,"   44"
2016-08-14T15:49:05.669Z,"   44"
2016-08-14T15:54:03.315Z,"   36"
2016-08-14T15:59:01.086Z,"   48"
2016-08-14T16:03:58.764Z,"   56"
2016-08-14T16:08:56.806Z,"   40"
2016-08-14T16:13:54.468Z,"   32"
2016-08-14T16:18:53.016Z,"   32"
2016-08-14T16:23:50.357Z,"   36"
2016-08-14T16:28:48.170Z,"   36"
2016-08-14T16:33:45.775Z,"   32"
2016-08-14T16:38:43.590Z,"   24"
2016-08-14T16:43:41.188Z,"   20"
2016-08-14T16:48:38.926Z,"   20"
2016-08-14T16:53:36.635Z,"   28"
2016-08-14T16:58:34.321Z,"   28"
2016-08-14T17:03:32.306Z,"   36"
2016-08-14T17:08:29.761Z,"   32"
2016-08-14T17:13:27.494Z,"   32"
2016-08-14T17:18:25.198Z,"   32"
2016-08-14T17:23:22.939Z,"   28"
2016-08-14T17:28:20.842Z,"   28"
2016-08-14T17:33:18.565Z,"   24"
2016-08-14T17:38:16.362Z,"   16"
2016-08-14T17:43:14.100Z,"   16"
2016-08-14T17:48:11.952Z,"   16"
2016-08-14T17:53:09.652Z,"   16"
2016-08-14T17:58:07.687Z,"   16"
2016-08-14T18:03:05.446Z,"   12"
2016-08-14T18:08:03.169Z,"    8"
2016-08-14T18:13:01.021Z,"    8"
2016-08-14T18:17:58.898Z,"    8"
2016-08-14T18:22:56.520Z,"    8"
2016-08-14T18:27:54.267Z,"    8"
2016-08-14T18:32:51.880Z,"    8"
2016-08-14T18:37:49.576Z,"    4"
2016-08-14T18:42:47.237Z,"    4"
2016-08-14T18:47:45.149Z,"    0"
2016-08-14T18:52:43.102Z,"    4"
2016-08-14T18:57:42.109Z,"    0"
2016-08-14T19:02:39.566Z,"    0"
2016-08-14T19:07:37.261Z,"    0"
2016-08-14T19:12:34.946Z,"    0"
2016-08-14T19:17:32.466Z,"    0"
2016-08-14T19:22:30.158Z,"    0"
2016-08-14T19:27:27.782Z,"    0"
2016-08-14T19:32:25.367Z,"    0"
2016-08-14T19:37:22.962Z,"    0"
2016-08-14T19:42:20.663Z,"    0"
2016-08-14T19:47:18.398Z,"    0"
2016-08-14T19:52:16.420Z,"    0"
2016-08-14T19:57:14.076Z,"    0"
2016-08-14T20:02:11.540Z,"    0"
2016-08-14T20:07:09.466Z,"    0"
2016-08-14T20:12:07.092Z,"    0"
2016-08-14T20:17:04.720Z,"    0"
2016-08-14T20:22:03.204Z,"    0"
2016-08-14T20:27:00.629Z,"    0"
2016-08-14T20:31:58.176Z,"    0"
2016-08-14T20:36:55.797Z,"    0"
2016-08-14T20:41:53.516Z,"    0"
2016-08-14T20:46:51.339Z,"    0"
2016-08-14T20:51:49.003Z,"    0"
2016-08-14T20:56:46.723Z,"    0"
2016-08-14T21:01:45.268Z,"    0"
2016-08-14T21:06:42.542Z,"    0"
2016-08-14T21:11:40.196Z,"    0"
2016-08-14T21:16:37.742Z,"    0"
2016-08-14T21:21:35.453Z,"    0"
2016-08-14T21:26:33.166Z,"    0"
2016-08-14T21:31:30.671Z,"    0"
2016-08-14T21:36:28.418Z,"    0"
2016-08-14T21:41:26.206Z,"    4"
2016-08-14T21:46:23.873Z,"    0"
2016-08-14T21:51:21.551Z,"    0"
2016-08-14T21:56:19.255Z,"    0"
2016-08-14T22:01:16.900Z,"    0"
2016-08-14T22:06:14.611Z,"    0"
2016-08-14T22:11:12.295Z,"    4"
2016-08-14T22:16:10.101Z,"    0"
2016-08-14T22:21:07.761Z,"    0"
2016-08-14T22:26:05.535Z,"    0"
2016-08-14T22:31:03.169Z,"    0"
2016-08-14T22:36:01.025Z,"    0"
2016-08-14T22:40:58.646Z,"    0"
2016-08-14T22:45:56.341Z,"    0"
2016-08-14T22:50:53.965Z,"    0"
2016-08-14T22:55:51.591Z,"    0"
2016-08-14T23:00:49.226Z,"    0"
2016-08-14T23:05:46.810Z,"    0"
2016-08-14T23:10:44.570Z,"    0"
2016-08-14T23:15:42.110Z,"    0"
2016-08-14T23:20:39.814Z,"    0"
2016-08-14T23:25:37.451Z,"    0"
2016-08-14T23:30:34.987Z,"    0"
2016-08-14T23:35:32.695Z,"    0"
2016-08-14T23:40:30.438Z,"    0"
2016-08-14T23:45:28.098Z,"    0"
2016-08-14T23:50:26.003Z,"    0"
2016-08-14T23:55:23.525Z,"    0"
